sensor_id;sensor_type;location;lat;lon;timestamp;pressure;altitude;pressure_sealevel;temperature;humidity
78206;BME280;67480;48.920;12.880;2024-02-15T00:00:12;97529.59;;;7.21;75.47
78206;BME280;67480;48.920;12.880;2024-02-15T00:02:37;97537.06;;;7.24;75.32
78206;BME280;67480;48.920;12.880;2024-02-15T00:05:03;97531.84;;;7.24;75.83
78206;BME280;67480;48.920;12.880;2024-02-15T00:07:28;97536.06;;;7.25;75.94
78206;BME280;67480;48.920;12.880;2024-02-15T00:09:54;97538.06;;;7.23;75.82
78206;BME280;67480;48.920;12.880;2024-02-15T00:12:20;97527.16;;;7.19;75.30
78206;BME280;67480;48.920;12.880;2024-02-15T00:14:45;97527.97;;;7.20;75.17
78206;BME280;67480;48.920;12.880;2024-02-15T00:17:11;97528.16;;;7.18;75.62
78206;BME280;67480;48.920;12.880;2024-02-15T00:19:37;97519.34;;;7.19;75.23
78206;BME280;67480;48.920;12.880;2024-02-15T00:22:03;97528.97;;;7.19;75.58
78206;BME280;67480;48.920;12.880;2024-02-15T00:24:29;97521.16;;;7.19;75.82
78206;BME280;67480;48.920;12.880;2024-02-15T00:26:56;97522.75;;;7.20;75.90
78206;BME280;67480;48.920;12.880;2024-02-15T00:29:21;97530.59;;;7.20;76.03
78206;BME280;67480;48.920;12.880;2024-02-15T00:31:47;97517.38;;;7.21;75.83
78206;BME280;67480;48.920;12.880;2024-02-15T00:34:12;97534.03;;;7.20;76.22
78206;BME280;67480;48.920;12.880;2024-02-15T00:36:38;97523.75;;;7.19;76.00
78206;BME280;67480;48.920;12.880;2024-02-15T00:39:06;97521.78;;;7.21;75.66
78206;BME280;67480;48.920;12.880;2024-02-15T00:41:33;97521.16;;;7.19;75.84
78206;BME280;67480;48.920;12.880;2024-02-15T00:43:59;97518.56;;;7.19;75.53
78206;BME280;67480;48.920;12.880;2024-02-15T00:46:24;97519.81;;;7.23;75.48
78206;BME280;67480;48.920;12.880;2024-02-15T00:48:52;97512.59;;;7.25;76.14
78206;BME280;67480;48.920;12.880;2024-02-15T00:51:18;97511.00;;;7.24;76.26
78206;BME280;67480;48.920;12.880;2024-02-15T00:53:43;97510.00;;;7.25;75.65
78206;BME280;67480;48.920;12.880;2024-02-15T00:56:09;97508.00;;;7.27;75.72
78206;BME280;67480;48.920;12.880;2024-02-15T00:58:34;97511.00;;;7.24;75.85
78206;BME280;67480;48.920;12.880;2024-02-15T01:00:59;97511.00;;;7.24;75.98
78206;BME280;67480;48.920;12.880;2024-02-15T01:03:25;97508.56;;;7.22;76.59
78206;BME280;67480;48.920;12.880;2024-02-15T01:05:51;97504.97;;;7.23;76.06
78206;BME280;67480;48.920;12.880;2024-02-15T01:08:17;97506.59;;;7.24;75.85
78206;BME280;67480;48.920;12.880;2024-02-15T01:10:45;97508.38;;;7.24;75.94
78206;BME280;67480;48.920;12.880;2024-02-15T01:13:11;97502.53;;;7.22;75.51
78206;BME280;67480;48.920;12.880;2024-02-15T01:15:37;97512.97;;;7.22;75.55
78206;BME280;67480;48.920;12.880;2024-02-15T01:18:04;97502.53;;;7.22;75.99
78206;BME280;67480;48.920;12.880;2024-02-15T01:20:29;97498.31;;;7.21;76.26
78206;BME280;67480;48.920;12.880;2024-02-15T01:22:56;97501.75;;;7.21;75.64
78206;BME280;67480;48.920;12.880;2024-02-15T01:25:21;97499.75;;;7.23;75.79
78206;BME280;67480;48.920;12.880;2024-02-15T01:27:46;97498.31;;;7.21;76.16
78206;BME280;67480;48.920;12.880;2024-02-15T01:30:13;97496.34;;;7.23;76.11
78206;BME280;67480;48.920;12.880;2024-02-15T01:32:38;97503.34;;;7.22;75.81
78206;BME280;67480;48.920;12.880;2024-02-15T01:35:07;97486.53;;;7.25;75.73
78206;BME280;67480;48.920;12.880;2024-02-15T01:37:35;97496.97;;;7.25;75.40
78206;BME280;67480;48.920;12.880;2024-02-15T01:40:02;97502.16;;;7.25;75.68
78206;BME280;67480;48.920;12.880;2024-02-15T01:42:27;97495.72;;;7.21;75.50
78206;BME280;67480;48.920;12.880;2024-02-15T01:44:52;97503.53;;;7.21;76.12
78206;BME280;67480;48.920;12.880;2024-02-15T01:47:18;97500.72;;;7.22;75.93
78206;BME280;67480;48.920;12.880;2024-02-15T01:49:48;97507.59;;;7.23;76.25
78206;BME280;67480;48.920;12.880;2024-02-15T01:52:15;97500.56;;;7.24;75.71
78206;BME280;67480;48.920;12.880;2024-02-15T01:54:42;97502.38;;;7.23;75.62
78206;BME280;67480;48.920;12.880;2024-02-15T01:57:08;97509.38;;;7.23;76.28
78206;BME280;67480;48.920;12.880;2024-02-15T01:59:33;97505.78;;;7.24;75.63
78206;BME280;67480;48.920;12.880;2024-02-15T02:01:59;97501.56;;;7.23;75.69
78206;BME280;67480;48.920;12.880;2024-02-15T02:04:25;97495.34;;;7.24;76.03
78206;BME280;67480;48.920;12.880;2024-02-15T02:06:51;97486.72;;;7.23;76.13
78206;BME280;67480;48.920;12.880;2024-02-15T02:09:20;97491.75;;;7.25;76.32
78206;BME280;67480;48.920;12.880;2024-02-15T02:11:47;97481.31;;;7.25;76.11
78206;BME280;67480;48.920;12.880;2024-02-15T02:14:13;97479.34;;;7.27;76.13
78206;BME280;67480;48.920;12.880;2024-02-15T02:16:39;97472.53;;;7.26;76.15
78206;BME280;67480;48.920;12.880;2024-02-15T02:19:05;97471.88;;;7.24;76.19
78206;BME280;67480;48.920;12.880;2024-02-15T02:21:34;97470.09;;;7.24;76.33
78206;BME280;67480;48.920;12.880;2024-02-15T02:24:02;97476.19;;;7.32;76.24
78206;BME280;67480;48.920;12.880;2024-02-15T02:26:33;97469.72;;;7.28;75.91
78206;BME280;67480;48.920;12.880;2024-02-15T02:29:00;97471.34;;;7.29;76.35
78206;BME280;67480;48.920;12.880;2024-02-15T02:31:25;97470.97;;;7.32;76.17
78206;BME280;67480;48.920;12.880;2024-02-15T02:33:52;97463.75;;;7.34;76.43
78206;BME280;67480;48.920;12.880;2024-02-15T02:36:18;97467.19;;;7.34;76.23
78206;BME280;67480;48.920;12.880;2024-02-15T02:38:44;97473.22;;;7.35;76.35
78206;BME280;67480;48.920;12.880;2024-02-15T02:41:13;97468.59;;;7.37;76.22
78206;BME280;67480;48.920;12.880;2024-02-15T02:43:39;97469.44;;;7.37;76.24
78206;BME280;67480;48.920;12.880;2024-02-15T02:46:05;97473.47;;;7.40;76.29
78206;BME280;67480;48.920;12.880;2024-02-15T02:48:31;97469.06;;;7.40;75.68
78206;BME280;67480;48.920;12.880;2024-02-15T02:50:57;97473.63;;;7.38;76.04
78206;BME280;67480;48.920;12.880;2024-02-15T02:53:23;97470.03;;;7.39;75.94
78206;BME280;67480;48.920;12.880;2024-02-15T02:55:49;97465.81;;;7.38;75.57
78206;BME280;67480;48.920;12.880;2024-02-15T02:58:15;97462.19;;;7.39;75.89
78206;BME280;67480;48.920;12.880;2024-02-15T03:00:40;97463.59;;;7.35;75.93
78206;BME280;67480;48.920;12.880;2024-02-15T03:03:05;97452.53;;;7.33;75.81
78206;BME280;67480;48.920;12.880;2024-02-15T03:05:31;97467.19;;;7.34;75.86
78206;BME280;67480;48.920;12.880;2024-02-15T03:07:56;97471.56;;;7.34;76.06
78206;BME280;67480;48.920;12.880;2024-02-15T03:10:22;97474.38;;;7.32;75.63
78206;BME280;67480;48.920;12.880;2024-02-15T03:12:49;97481.19;;;7.33;75.47
78206;BME280;67480;48.920;12.880;2024-02-15T03:15:15;97476.00;;;7.33;75.96
78206;BME280;67480;48.920;12.880;2024-02-15T03:17:42;97481.84;;;7.35;75.89
78206;BME280;67480;48.920;12.880;2024-02-15T03:20:09;97480.84;;;7.36;75.93
78206;BME280;67480;48.920;12.880;2024-02-15T03:22:57;97478.59;;;7.33;75.86
78206;BME280;67480;48.920;12.880;2024-02-15T03:25:23;97487.41;;;7.32;75.92
78206;BME280;67480;48.920;12.880;2024-02-15T03:27:53;97495.88;;;7.34;75.89
78206;BME280;67480;48.920;12.880;2024-02-15T03:30:19;97494.59;;;7.30;75.84
78206;BME280;67480;48.920;12.880;2024-02-15T03:32:48;97494.44;;;7.32;75.93
78206;BME280;67480;48.920;12.880;2024-02-15T03:35:15;97499.44;;;7.33;76.31
78206;BME280;67480;48.920;12.880;2024-02-15T03:37:40;97498.81;;;7.31;76.59
78206;BME280;67480;48.920;12.880;2024-02-15T03:40:07;97497.84;;;7.32;76.27
78206;BME280;67480;48.920;12.880;2024-02-15T03:42:33;97505.84;;;7.31;75.98
78206;BME280;67480;48.920;12.880;2024-02-15T03:45:04;97501.25;;;7.33;76.18
78206;BME280;67480;48.920;12.880;2024-02-15T03:47:33;97496.22;;;7.31;76.69
78206;BME280;67480;48.920;12.880;2024-02-15T03:49:59;97503.06;;;7.32;76.02
78206;BME280;67480;48.920;12.880;2024-02-15T03:52:25;97503.44;;;7.29;76.89
78206;BME280;67480;48.920;12.880;2024-02-15T03:54:50;97505.84;;;7.31;76.65
78206;BME280;67480;48.920;12.880;2024-02-15T03:57:18;97505.84;;;7.31;76.93
78206;BME280;67480;48.920;12.880;2024-02-15T03:59:46;97507.84;;;7.29;76.62
78206;BME280;67480;48.920;12.880;2024-02-15T04:02:16;97509.25;;;7.31;76.24
78206;BME280;67480;48.920;12.880;2024-02-15T04:04:41;97502.88;;;7.34;76.54
78206;BME280;67480;48.920;12.880;2024-02-15T04:07:08;97508.91;;;7.34;76.58
78206;BME280;67480;48.920;12.880;2024-02-15T04:09:35;97509.06;;;7.33;76.52
78206;BME280;67480;48.920;12.880;2024-02-15T04:12:01;97509.25;;;7.31;76.84
78206;BME280;67480;48.920;12.880;2024-02-15T04:14:27;97511.69;;;7.33;76.13
78206;BME280;67480;48.920;12.880;2024-02-15T04:16:53;97501.09;;;7.34;76.47
78206;BME280;67480;48.920;12.880;2024-02-15T04:19:18;97509.88;;;7.33;76.56
78206;BME280;67480;48.920;12.880;2024-02-15T04:21:47;97498.66;;;7.33;76.60
78206;BME280;67480;48.920;12.880;2024-02-15T04:24:16;97498.47;;;7.34;76.74
78206;BME280;67480;48.920;12.880;2024-02-15T04:26:42;97499.28;;;7.35;76.38
78206;BME280;67480;48.920;12.880;2024-02-15T04:29:07;97495.41;;;7.31;76.53
78206;BME280;67480;48.920;12.880;2024-02-15T04:31:34;97491.84;;;7.32;77.64
78206;BME280;67480;48.920;12.880;2024-02-15T04:34:02;97493.88;;;7.36;77.92
78206;BME280;67480;48.920;12.880;2024-02-15T04:36:28;97491.63;;;7.33;77.92
78206;BME280;67480;48.920;12.880;2024-02-15T04:38:59;97503.69;;;7.34;78.17
78206;BME280;67480;48.920;12.880;2024-02-15T04:41:25;97493.00;;;7.29;78.46
78206;BME280;67480;48.920;12.880;2024-02-15T04:43:50;97488.22;;;7.33;78.20
78206;BME280;67480;48.920;12.880;2024-02-15T04:46:16;97491.63;;;7.33;77.76
78206;BME280;67480;48.920;12.880;2024-02-15T04:48:41;97491.25;;;7.36;77.77
78206;BME280;67480;48.920;12.880;2024-02-15T04:51:09;97493.06;;;7.36;77.52
78206;BME280;67480;48.920;12.880;2024-02-15T04:53:35;97489.03;;;7.33;76.99
78206;BME280;67480;48.920;12.880;2024-02-15T04:56:01;97496.84;;;7.33;76.98
78206;BME280;67480;48.920;12.880;2024-02-15T04:58:34;97482.19;;;7.32;77.25
78206;BME280;67480;48.920;12.880;2024-02-15T05:01:02;97481.84;;;7.35;76.76
78206;BME280;67480;48.920;12.880;2024-02-15T05:03:31;97480.84;;;7.36;77.02
78206;BME280;67480;48.920;12.880;2024-02-15T05:06:00;97483.25;;;7.38;77.28
78206;BME280;67480;48.920;12.880;2024-02-15T05:08:25;97483.44;;;7.36;76.95
78206;BME280;67480;48.920;12.880;2024-02-15T05:10:51;97481.47;;;7.38;77.23
78206;BME280;67480;48.920;12.880;2024-02-15T05:13:21;97482.25;;;7.39;77.09
78206;BME280;67480;48.920;12.880;2024-02-15T05:15:47;97478.69;;;7.40;76.85
78206;BME280;67480;48.920;12.880;2024-02-15T05:18:12;97477.84;;;7.39;76.84
78206;BME280;67480;48.920;12.880;2024-02-15T05:20:38;97486.50;;;7.40;76.94
78206;BME280;67480;48.920;12.880;2024-02-15T05:23:06;97477.84;;;7.39;77.04
78206;BME280;67480;48.920;12.880;2024-02-15T05:25:31;97481.47;;;7.38;76.81
78206;BME280;67480;48.920;12.880;2024-02-15T05:27:58;97475.44;;;7.38;76.74
78206;BME280;67480;48.920;12.880;2024-02-15T05:30:24;97476.41;;;7.37;76.77
78206;BME280;67480;48.920;12.880;2024-02-15T05:32:50;97484.06;;;7.38;76.68
78206;BME280;67480;48.920;12.880;2024-02-15T05:35:17;97472.63;;;7.39;77.16
78206;BME280;67480;48.920;12.880;2024-02-15T05:37:43;97476.25;;;7.38;76.50
78206;BME280;67480;48.920;12.880;2024-02-15T05:40:09;97483.91;;;7.40;77.12
78206;BME280;67480;48.920;12.880;2024-02-15T05:42:43;97472.63;;;7.39;77.21
78206;BME280;67480;48.920;12.880;2024-02-15T05:45:30;97473.63;;;7.38;76.87
78206;BME280;67480;48.920;12.880;2024-02-15T05:47:58;97467.03;;;7.42;77.21
78206;BME280;67480;48.920;12.880;2024-02-15T05:50:24;97467.03;;;7.42;77.02
78206;BME280;67480;48.920;12.880;2024-02-15T05:52:49;97469.84;;;7.41;77.37
78206;BME280;67480;48.920;12.880;2024-02-15T05:55:17;97477.69;;;7.41;77.38
78206;BME280;67480;48.920;12.880;2024-02-15T05:57:44;97472.25;;;7.42;77.06
78206;BME280;67480;48.920;12.880;2024-02-15T06:00:10;97477.47;;;7.42;77.51
78206;BME280;67480;48.920;12.880;2024-02-15T06:02:35;97479.13;;;7.43;77.46
78206;BME280;67480;48.920;12.880;2024-02-15T06:05:01;97481.72;;;7.43;77.54
78206;BME280;67480;48.920;12.880;2024-02-15T06:07:29;97479.13;;;7.43;77.40
78206;BME280;67480;48.920;12.880;2024-02-15T06:09:57;97487.09;;;7.42;76.82
78206;BME280;67480;48.920;12.880;2024-02-15T06:12:22;97477.69;;;7.41;76.72
78206;BME280;67480;48.920;12.880;2024-02-15T06:14:48;97488.91;;;7.41;77.32
78206;BME280;67480;48.920;12.880;2024-02-15T06:17:13;97487.91;;;7.42;76.88
78206;BME280;67480;48.920;12.880;2024-02-15T06:19:39;97489.72;;;7.42;77.04
78206;BME280;67480;48.920;12.880;2024-02-15T06:22:05;97495.72;;;7.42;77.11
78206;BME280;67480;48.920;12.880;2024-02-15T06:24:30;97496.56;;;7.43;76.91
78206;BME280;67480;48.920;12.880;2024-02-15T06:26:56;97501.94;;;7.41;76.67
78206;BME280;67480;48.920;12.880;2024-02-15T06:29:25;97505.19;;;7.43;76.61
78206;BME280;67480;48.920;12.880;2024-02-15T06:32:09;97508.16;;;7.40;77.08
78206;BME280;67480;48.920;12.880;2024-02-15T06:34:56;97501.94;;;7.41;76.72
78206;BME280;67480;48.920;12.880;2024-02-15T06:37:40;97500.34;;;7.40;76.81
78206;BME280;67480;48.920;12.880;2024-02-15T06:40:24;97495.31;;;7.39;76.90
78206;BME280;67480;48.920;12.880;2024-02-15T06:42:49;97501.31;;;7.39;76.94
78206;BME280;67480;48.920;12.880;2024-02-15T06:45:16;97506.38;;;7.41;77.15
78206;BME280;67480;48.920;12.880;2024-02-15T06:47:42;97511.19;;;7.44;77.37
78206;BME280;67480;48.920;12.880;2024-02-15T06:50:13;97507.41;;;7.46;77.44
78206;BME280;67480;48.920;12.880;2024-02-15T06:52:40;97507.59;;;7.45;77.16
78206;BME280;67480;48.920;12.880;2024-02-15T06:55:07;97519.84;;;7.44;76.85
78206;BME280;67480;48.920;12.880;2024-02-15T06:57:33;97519.19;;;7.42;76.73
78206;BME280;67480;48.920;12.880;2024-02-15T07:00:02;97517.22;;;7.44;76.99
78206;BME280;67480;48.920;12.880;2024-02-15T07:02:27;97523.63;;;7.42;76.98
78206;BME280;67480;48.920;12.880;2024-02-15T07:04:54;97513.97;;;7.42;76.71
78206;BME280;67480;48.920;12.880;2024-02-15T07:07:19;97510.41;;;7.43;76.88
78206;BME280;67480;48.920;12.880;2024-02-15T07:09:44;97513.97;;;7.42;76.72
78206;BME280;67480;48.920;12.880;2024-02-15T07:12:10;97526.06;;;7.43;76.77
78206;BME280;67480;48.920;12.880;2024-02-15T07:14:36;97534.03;;;7.42;76.83
78206;BME280;67480;48.920;12.880;2024-02-15T07:17:02;97532.06;;;7.44;77.09
78206;BME280;67480;48.920;12.880;2024-02-15T07:19:27;97533.25;;;7.41;76.68
78206;BME280;67480;48.920;12.880;2024-02-15T07:21:52;97519.19;;;7.42;77.10
78206;BME280;67480;48.920;12.880;2024-02-15T07:24:18;97513.00;;;7.43;76.29
78206;BME280;67480;48.920;12.880;2024-02-15T07:26:44;97526.06;;;7.43;76.67
78206;BME280;67480;48.920;12.880;2024-02-15T07:29:10;97522.44;;;7.44;76.38
78206;BME280;67480;48.920;12.880;2024-02-15T07:31:36;97533.66;;;7.45;76.74
78206;BME280;67480;48.920;12.880;2024-02-15T07:34:02;97533.06;;;7.43;76.44
78206;BME280;67480;48.920;12.880;2024-02-15T07:36:28;97526.84;;;7.44;76.15
78206;BME280;67480;48.920;12.880;2024-02-15T07:38:54;97529.28;;;7.45;76.21
78206;BME280;67480;48.920;12.880;2024-02-15T07:41:23;97536.91;;;7.47;76.23
78206;BME280;67480;48.920;12.880;2024-02-15T07:43:49;97532.50;;;7.47;76.10
78206;BME280;67480;48.920;12.880;2024-02-15T07:46:15;97539.53;;;7.47;76.14
78206;BME280;67480;48.920;12.880;2024-02-15T07:48:45;97525.31;;;7.50;76.29
78206;BME280;67480;48.920;12.880;2024-02-15T07:51:15;97537.34;;;7.51;76.13
78206;BME280;67480;48.920;12.880;2024-02-15T07:53:41;97544.56;;;7.49;76.27
78206;BME280;67480;48.920;12.880;2024-02-15T07:56:11;97539.94;;;7.51;76.15
78206;BME280;67480;48.920;12.880;2024-02-15T07:58:41;97541.59;;;7.52;76.16
78206;BME280;67480;48.920;12.880;2024-02-15T08:01:07;97529.53;;;7.51;76.03
78206;BME280;67480;48.920;12.880;2024-02-15T08:03:34;97532.75;;;7.53;76.24
78206;BME280;67480;48.920;12.880;2024-02-15T08:06:01;97523.13;;;7.53;75.88
78206;BME280;67480;48.920;12.880;2024-02-15T08:08:26;97524.31;;;7.51;76.06
78206;BME280;67480;48.920;12.880;2024-02-15T08:10:51;97523.34;;;7.52;76.37
78206;BME280;67480;48.920;12.880;2024-02-15T08:13:17;97517.31;;;7.51;76.22
78206;BME280;67480;48.920;12.880;2024-02-15T08:15:43;97516.09;;;7.54;76.10
78206;BME280;67480;48.920;12.880;2024-02-15T08:18:09;97515.31;;;7.53;75.92
78206;BME280;67480;48.920;12.880;2024-02-15T08:20:37;97516.09;;;7.54;76.04
78206;BME280;67480;48.920;12.880;2024-02-15T08:23:03;97507.31;;;7.55;75.84
78206;BME280;67480;48.920;12.880;2024-02-15T08:25:29;97497.69;;;7.55;76.20
78206;BME280;67480;48.920;12.880;2024-02-15T08:27:55;97492.28;;;7.57;75.80
78206;BME280;67480;48.920;12.880;2024-02-15T08:30:20;97494.06;;;7.56;76.16
78206;BME280;67480;48.920;12.880;2024-02-15T08:32:46;97486.06;;;7.58;76.34
78206;BME280;67480;48.920;12.880;2024-02-15T08:35:13;97480.84;;;7.58;76.20
78206;BME280;67480;48.920;12.880;2024-02-15T08:37:41;97480.47;;;7.61;75.99
78206;BME280;67480;48.920;12.880;2024-02-15T08:40:09;97480.47;;;7.61;76.12
78206;BME280;67480;48.920;12.880;2024-02-15T08:42:42;97480.31;;;7.62;75.69
78206;BME280;67480;48.920;12.880;2024-02-15T08:45:08;97483.88;;;7.61;76.13
78206;BME280;67480;48.920;12.880;2024-02-15T08:47:40;97484.50;;;7.63;75.84
78206;BME280;67480;48.920;12.880;2024-02-15T08:50:07;97475.69;;;7.64;75.82
78206;BME280;67480;48.920;12.880;2024-02-15T08:52:39;97465.06;;;7.66;75.89
78206;BME280;67480;48.920;12.880;2024-02-15T08:55:09;97468.91;;;7.70;75.56
78206;BME280;67480;48.920;12.880;2024-02-15T08:57:35;97471.34;;;7.72;75.97
78206;BME280;67480;48.920;12.880;2024-02-15T09:00:05;97480.59;;;7.74;75.80
78206;BME280;67480;48.920;12.880;2024-02-15T09:02:35;97478.00;;;7.74;75.57
78206;BME280;67480;48.920;12.880;2024-02-15T09:05:03;97479.84;;;7.80;75.72
78206;BME280;67480;48.920;12.880;2024-02-15T09:07:32;97475.44;;;7.81;75.07
78206;BME280;67480;48.920;12.880;2024-02-15T09:09:58;97479.47;;;7.83;76.07
78206;BME280;67480;48.920;12.880;2024-02-15T09:12:23;97475.84;;;7.84;76.08
78206;BME280;67480;48.920;12.880;2024-02-15T09:14:49;97475.47;;;7.87;77.46
78206;BME280;67480;48.920;12.880;2024-02-15T09:17:14;97470.72;;;7.91;78.18
78206;BME280;67480;48.920;12.880;2024-02-15T09:19:39;97476.34;;;7.95;77.85
78206;BME280;67480;48.920;12.880;2024-02-15T09:22:07;97467.50;;;7.96;78.24
78206;BME280;67480;48.920;12.880;2024-02-15T09:24:33;97468.13;;;7.98;78.00
78206;BME280;67480;48.920;12.880;2024-02-15T09:26:59;97477.22;;;8.02;79.12
78206;BME280;67480;48.920;12.880;2024-02-15T09:29:29;97468.38;;;8.03;78.03
78206;BME280;67480;48.920;12.880;2024-02-15T09:31:55;97467.00;;;8.07;78.78
78206;BME280;67480;48.920;12.880;2024-02-15T09:34:22;97474.81;;;8.07;78.94
78206;BME280;67480;48.920;12.880;2024-02-15T09:36:48;97465.63;;;8.11;77.70
78206;BME280;67480;48.920;12.880;2024-02-15T09:39:13;97468.88;;;8.13;78.06
78206;BME280;67480;48.920;12.880;2024-02-15T09:41:39;97472.88;;;8.16;78.61
78206;BME280;67480;48.920;12.880;2024-02-15T09:44:05;97472.53;;;8.19;78.68
78206;BME280;67480;48.920;12.880;2024-02-15T09:46:35;97471.31;;;8.21;78.81
78206;BME280;67480;48.920;12.880;2024-02-15T09:49:04;97468.13;;;8.26;78.87
78206;BME280;67480;48.920;12.880;2024-02-15T09:51:33;97463.72;;;8.26;79.28
78206;BME280;67480;48.920;12.880;2024-02-15T09:54:00;97466.94;;;8.28;78.90
78206;BME280;67480;48.920;12.880;2024-02-15T09:56:26;97470.78;;;8.32;79.22
78206;BME280;67480;48.920;12.880;2024-02-15T09:58:54;97470.59;;;8.34;79.67
78206;BME280;67480;48.920;12.880;2024-02-15T10:01:23;97465.63;;;8.39;78.92
78206;BME280;67480;48.920;12.880;2024-02-15T10:03:50;97465.84;;;8.44;79.80
78206;BME280;67480;48.920;12.880;2024-02-15T10:06:17;97467.06;;;8.48;79.39
78206;BME280;67480;48.920;12.880;2024-02-15T10:08:43;97467.09;;;8.55;78.99
78206;BME280;67480;48.920;12.880;2024-02-15T10:11:12;97474.34;;;8.53;78.11
78206;BME280;67480;48.920;12.880;2024-02-15T10:13:38;97469.91;;;8.53;78.47
78206;BME280;67480;48.920;12.880;2024-02-15T10:16:20;97462.69;;;8.55;77.88
78206;BME280;67480;48.920;12.880;2024-02-15T10:18:50;97472.31;;;8.55;78.01
78206;BME280;67480;48.920;12.880;2024-02-15T10:21:26;97477.38;;;8.56;77.89
78206;BME280;67480;48.920;12.880;2024-02-15T10:24:06;97479.19;;;8.56;78.09
78206;BME280;67480;48.920;12.880;2024-02-15T10:26:32;97471.94;;;8.58;78.60
78206;BME280;67480;48.920;12.880;2024-02-15T10:29:10;97469.31;;;8.58;78.13
78206;BME280;67480;48.920;12.880;2024-02-15T10:31:37;97469.13;;;8.59;78.47
78206;BME280;67480;48.920;12.880;2024-02-15T10:34:05;97467.16;;;8.62;78.08
78206;BME280;67480;48.920;12.880;2024-02-15T10:36:30;97472.16;;;8.63;78.96
78206;BME280;67480;48.920;12.880;2024-02-15T10:39:17;97466.94;;;8.63;77.75
78206;BME280;67480;48.920;12.880;2024-02-15T10:41:48;97469.38;;;8.65;77.92
78206;BME280;67480;48.920;12.880;2024-02-15T10:44:23;97463.94;;;8.66;77.87
78206;BME280;67480;48.920;12.880;2024-02-15T10:46:52;97461.56;;;8.71;78.02
78206;BME280;67480;48.920;12.880;2024-02-15T10:49:19;97464.16;;;8.71;78.45
78206;BME280;67480;48.920;12.880;2024-02-15T10:51:49;97464.22;;;8.78;77.40
78206;BME280;67480;48.920;12.880;2024-02-15T10:54:21;97453.75;;;8.78;77.86
78206;BME280;67480;48.920;12.880;2024-02-15T10:56:49;97444.13;;;8.78;77.71
78206;BME280;67480;48.920;12.880;2024-02-15T10:59:19;97447.13;;;8.82;77.82
78206;BME280;67480;48.920;12.880;2024-02-15T11:01:46;97440.09;;;8.82;77.82
78206;BME280;67480;48.920;12.880;2024-02-15T11:04:17;97435.91;;;8.88;77.95
78206;BME280;67480;48.920;12.880;2024-02-15T11:06:47;97438.34;;;8.90;77.68
78206;BME280;67480;48.920;12.880;2024-02-15T11:09:16;97440.19;;;8.96;77.88
78206;BME280;67480;48.920;12.880;2024-02-15T11:11:42;97423.47;;;8.97;77.47
78206;BME280;67480;48.920;12.880;2024-02-15T11:14:28;97425.91;;;8.98;77.20
78206;BME280;67480;48.920;12.880;2024-02-15T11:17:01;97425.13;;;9.05;77.19
78206;BME280;67480;48.920;12.880;2024-02-15T11:22:12;97412.44;;;9.08;77.16
78206;BME280;67480;48.920;12.880;2024-02-15T11:24:51;97405.03;;;9.12;76.83
78206;BME280;67480;48.920;12.880;2024-02-15T11:27:30;97408.47;;;9.12;77.39
78206;BME280;67480;48.920;12.880;2024-02-15T11:30:00;97404.25;;;9.18;77.60
78206;BME280;67480;48.920;12.880;2024-02-15T11:32:39;97397.38;;;9.17;76.74
78206;BME280;67480;48.920;12.880;2024-02-15T11:35:08;97393.97;;;9.16;77.01
78206;BME280;67480;48.920;12.880;2024-02-15T11:43:07;97376.50;;;9.30;77.45
78206;BME280;67480;48.920;12.880;2024-02-15T11:45:34;97369.66;;;9.36;77.50
78206;BME280;67480;48.920;12.880;2024-02-15T11:48:07;97366.22;;;9.42;77.22
78206;BME280;67480;48.920;12.880;2024-02-15T11:50:36;97364.84;;;9.46;77.07
78206;BME280;67480;48.920;12.880;2024-02-15T11:53:03;97372.06;;;9.51;77.25
78206;BME280;67480;48.920;12.880;2024-02-15T11:55:36;97372.50;;;9.54;76.90
78206;BME280;67480;48.920;12.880;2024-02-15T11:58:04;97376.13;;;9.60;76.97
78206;BME280;67480;48.920;12.880;2024-02-15T12:00:38;97372.09;;;9.57;76.84
78206;BME280;67480;48.920;12.880;2024-02-15T12:03:23;97372.09;;;9.57;77.18
78206;BME280;67480;48.920;12.880;2024-02-15T12:06:08;97369.25;;;9.59;76.69
78206;BME280;67480;48.920;12.880;2024-02-15T12:08:53;97361.41;;;9.65;76.82
78206;BME280;67480;48.920;12.880;2024-02-15T12:11:38;97355.56;;;9.63;76.93
78206;BME280;67480;48.920;12.880;2024-02-15T12:14:22;97347.13;;;9.68;76.75
78206;BME280;67480;48.920;12.880;2024-02-15T12:17:07;97346.31;;;9.74;76.75
78206;BME280;67480;48.920;12.880;2024-02-15T12:19:53;97341.88;;;9.75;76.45
78206;BME280;67480;48.920;12.880;2024-02-15T12:22:43;97334.63;;;9.70;75.86
78206;BME280;67480;48.920;12.880;2024-02-15T12:25:16;97328.19;;;9.79;76.49
78206;BME280;67480;48.920;12.880;2024-02-15T12:27:44;97328.34;;;9.84;76.21
78206;BME280;67480;48.920;12.880;2024-02-15T12:30:17;97319.91;;;9.89;76.47
78206;BME280;67480;48.920;12.880;2024-02-15T12:32:47;97320.47;;;9.98;76.53
78206;BME280;67480;48.920;12.880;2024-02-15T12:35:14;97320.06;;;10.07;76.43
78206;BME280;67480;48.920;12.880;2024-02-15T12:40:37;97320.41;;;10.18;76.16
78206;BME280;67480;48.920;12.880;2024-02-15T12:43:07;97311.75;;;10.17;76.20
78206;BME280;67480;48.920;12.880;2024-02-15T12:45:38;97308.34;;;10.17;76.31
78206;BME280;67480;48.920;12.880;2024-02-15T12:48:04;97312.75;;;10.23;76.60
78206;BME280;67480;48.920;12.880;2024-02-15T12:50:31;97306.28;;;10.25;76.33
78206;BME280;67480;48.920;12.880;2024-02-15T12:52:57;97301.66;;;10.21;76.51
78206;BME280;67480;48.920;12.880;2024-02-15T12:55:28;97290.97;;;10.29;76.23
78206;BME280;67480;48.920;12.880;2024-02-15T12:57:55;97286.09;;;10.32;76.23
78206;BME280;67480;48.920;12.880;2024-02-15T13:00:27;97286.72;;;10.34;76.09
78206;BME280;67480;48.920;12.880;2024-02-15T13:02:57;97292.16;;;10.33;75.87
78206;BME280;67480;48.920;12.880;2024-02-15T13:05:25;97283.47;;;10.39;76.22
78206;BME280;67480;48.920;12.880;2024-02-15T13:07:54;97283.47;;;10.39;76.13
78206;BME280;67480;48.920;12.880;2024-02-15T13:10:21;97283.06;;;10.42;76.20
78206;BME280;67480;48.920;12.880;2024-02-15T13:12:47;97284.22;;;10.46;76.23
78206;BME280;67480;48.920;12.880;2024-02-15T13:15:14;97273.97;;;10.45;76.33